Pronóstico
Mapa Interactivo
Aviación
Climatología
Hidrometeorología
Agrometeorología
Estaciones Automáticas
Transparencia
OMM WMO
Portada
Institución
Noticias
Imágenes
Tsunami
Historial
Boletines y Alertas
Contactos
Buscar Contenidos
Informe del Tiempo

 

VUELOS DE BAJO NIVEL DESDE SUPERFICIE HASTA 24,000 PIES.

 
VALIDO DESDE 231200Z...…………………….…………………HASTA 240000Z
SANTO DOMINGO FIR...PORT-AU-PRINCE FIR … W 72W...SCT020. ISOL TSRA. TIL 12Z OVR INLAND AREAS OCNL VIS 3-5SM BR. BECMG 
1214 BKN025 BKN040-060. TOPS LYRD ABV FL240.SCT SHRA/TSRA. VIS OCNL 3-5SM RA BR. OTLK...MVFR CIG SHRA TSRA..
06Z VFR SHRA.E 72W...BKN020 BKN040-060. TOPS LYRD ABV FL240. SCT SHRA/TSRA.  VIS OCNL 3-5SM RA BR. S 18N WND
ELY 20KT. OTLK...MVFR CIG SHRA  TSRA...06Z VFR SHRA.
ICE AND FRZLVL...NO SGFNT ICE EXP OUTSIDE CNVTV ACT.FRZLVL
...140 TO 160..TURB...NO SGFNT TURB EXP OUTSIDE CNVTV ACT....
 

 

5,000 FT.

10,000 FT.

18,000 FT.

24,000 FT.

MDSD

1205KT+18ºC

1215KT+09ºC

1005KT-09ºC

1305KT-19ºC

MTPP

1505KT+18ºC

1115KT+09ºC

0505KT-09ºC

1105KT-19ºC

TJSJ

0910KT+17ºC

1315KT+08ºC

1605KT-08ºC

1510KT-19ºC

 

 

 

 

 

TAF MDPP 231000Z 2312/2412 00000KT 9999 FEW018 BECMG 2313/2315 07015KT FEW025=

TAF MDST 231000Z 2312/2412 14010KT 9999 SCT022 SCT070 PROB30 2312/2318 7000 -RA FEW016 BKN016 BKN070=

TAF MDPC 231000Z 2312/2412 13010KT 9999 FEW016CB SCT018 SCT080 PROB30 2312/2318 7000 -TSRA FEW015CB SCT017 BKN070=

TAF MDBH 231000Z 2312/2412 27005KT 9999 FEW018CB SCT018 SCT090 TEMPO 2314/2320 6000 TSRA FEW14CB BKN016 BKN070 BECMG 2316/2318 13016KT=

TAF MDJB 231000Z 2312/2412 07008KT 9999 FEW016CB SCT18 SCT080 TEMPO 2313/2319 6000 TSRA FEW014CB BKN016 BKN070 BECMG 2316/2318 18015KT PROB40 2320/2402 5000 TSRA FEW012CB BKN014 OVC070=

TAF MDSD 231000Z 2312/2412 05004KT 9999 FEW018CB SCT020 SCT080 BECMG 2315/2317 15012KT PROB40 2315/2321 5000 TSRA FEW012CB BKN014 OVC070=

TAF MDLR 231000Z 2312/2412 13010KT 9999 FEW018CB SCT020 SCT080 TEMPO 2314/2320 6000 TSRA FEW014CB BKN016 SCT070 BECMG 2400/2402 00000KT= 

TAF MDCY 231000Z 2312/2412 07010KT 9999 FEW016CB SCT018 PROB40 2311/2317 6000 TSRA FEW014CB BKN016 BKN070 TEMPO 2318/2400 5000 TSRA FEW014CB BKN016 BKN070=

KMIA 230907Z 2309/2412 28003KT P6SM FEW030 FEW100 FM231400 29005KT P6SM SCT030 SCT050
FM231800 VRB05KT P6SM VCTS SCT025CB BKN050 PROB30 2319/2323 5SM TSRA BKN030CB OVC050
FM240000 VRB05KT P6SM VCSH FEW030 SCT070 BKN120 FM240200 VRB03KT P6SM FEW030 SCT100

KJFK 231008Z 2310/2412 07011KT P6SM VCSH OVC015 TEMPO 2312/2314 3SM TSRA BR BKN009 OVC035CB
FM231400 09011KT 3SM -SHRA BR OVC009 FM231900 08007KT 6SM BR VCSH OVC015 FM240100 11005KT 3SM -SHRA BR OVC010 FM240600 VRB04KT 2SM BR VCSH OVC007

TJSJ 230538Z 2306/2406 12005KT P6SM VCSH SCT025 SCT040 BKN090 TEMPO 2306/2308 SHRA BKN030
FM231300 09010KT P6SM FEW025 SCT050 FM231700 07014KT P6SM VCTS SCT025CB SCT050 SCT070
FM232200 10006KT P6SM SCT030

MUHA 230500Z 2306/2406 12005KT 9000 FEW030 TEMPO 2319/2323 5000 SHRA FEW018CB SCT020

TAF MUGM 2307/2407 36008KT 9999 FEW030 SCT280 QNH2995INS BECMG 2315/2317 13013KT 9999 VCSH SCT030 SCT130 BKN280 QNH2994INS FM231800 16012KT 9999 VCTS FEW030CB SCT130 BKN280 QNH2991INS
TEMPO 2318/2400 VRB15G20KT TSRA BKN030CB FM240200 02005KT 9999 FEW030 SCT280 QNH2993INS T24/2310Z T32/2318Z FN00182

TAF TNCC 230900Z 2312/2412 10016KT 9999 SCT025 PROB30 TEMPO 2312/2315 09018G30KT 8000 SHRA BKN015

TAF MKJP 230515Z 2306/2406 36005KT 9999 FEW022 BECMG 2312/2314 14020KT FEW022CB TEMPO 2318/2322 14025G35FT 6000 TSRA BKN018CB BECMG 2401/2403 36005KT FEW022

 

HENRIQUEZ A.

   23/06/2018